Station: EBLB - 06/02/2023 02:25Z (il y a 33 minutes)
EBLB 060225Z AUTO 05007KT 9999 OVC006/// 00/M01 Q1039 YLO
Vent du 050º - 7 kt
Visibilité > 10 km
Ciel couvert à 600 pieds
Température: +00ºC - Point de rosée: -01ºC - QNH: 1039 hPa
Code couleur militaire: YLO (conditions IMC ou marginales)